Time;durP1;ratioP1;P1;durP2;ratioP2;P2;SDS_P1;SDS_P2;PMS_P1;PMS_P2;Temp;Humidity;BMP_temperature;BMP_pressure;BME280_temperature;BME280_humidity;BME280_pressure;Samples;Min_cycle;Max_cycle;Signal;HPM_P1;HPM_P2
2021/12/02 00:01:35;;;;;;;30.80;20.47;;;;;;;6.24;69.92;99159.13;5050763;28;20200;-60
2021/12/02 00:04:02;;;;;;;41.10;25.23;;;;;;;6.18;69.88;99151.28;5050741;28;20197;-60
2021/12/02 00:06:29;;;;;;;35.17;24.93;;;;;;;6.13;70.27;99162.19;5050652;28;20236;-60
2021/12/02 00:08:57;;;;;;;57.07;28.23;;;;;;;6.08;70.77;99159.53;5050613;28;20567;-60
2021/12/02 00:11:24;;;;;;;38.13;24.57;;;;;;;6.04;71.90;99159.41;5050451;28;20204;-60
2021/12/02 00:13:55;;;;;;;42.90;27.07;;;;;;;6.03;72.19;99155.97;5055861;28;20226;-60
2021/12/02 00:16:27;;;;;;;42.80;25.57;;;;;;;5.96;71.79;99164.25;5070693;28;20200;-59
2021/12/02 00:21:44;;;;;;;40.60;24.43;;;;;;;5.67;71.99;99173.56;5070564;28;20237;-59
2021/12/02 00:24:18;;;;;;;36.27;24.70;;;;;;;5.65;72.04;99169.25;5070536;28;20203;-60
2021/12/02 00:26:46;;;;;;;41.20;26.10;;;;;;;5.57;72.63;99171.59;5053601;28;20201;-59
2021/12/02 00:29:16;;;;;;;37.97;26.50;;;;;;;5.57;73.21;99171.59;5050275;28;20771;-60
2021/12/02 00:31:45;;;;;;;40.13;25.00;;;;;;;5.54;72.85;99179.13;5050381;28;20223;-59
2021/12/02 00:34:12;;;;;;;40.17;26.40;;;;;;;5.55;73.09;99183.38;5050347;28;20201;-60
2021/12/02 00:36:40;;;;;;;43.93;26.07;;;;;;;5.50;73.40;99173.88;5050470;28;20579;-59
2021/12/02 00:39:10;;;;;;;33.77;24.43;;;;;;;5.42;74.19;99180.41;5050351;28;20196;-60
2021/12/02 00:41:38;;;;;;;41.00;24.90;;;;;;;5.38;74.46;99177.75;5050119;28;20755;-60
2021/12/02 00:44:06;;;;;;;40.77;27.17;;;;;;;5.38;73.38;99175.22;5050640;28;20203;-59
2021/12/02 00:46:33;;;;;;;40.77;27.20;;;;;;;5.29;73.96;99172.41;5070148;28;20201;-60
2021/12/02 00:49:03;;;;;;;39.70;26.93;;;;;;;5.29;73.34;99162.22;5070382;28;20219;-60
2021/12/02 00:51:30;;;;;;;39.10;25.47;;;;;;;5.31;73.62;99175.84;5069993;28;20192;-59
2021/12/02 00:54:02;;;;;;;39.37;24.27;;;;;;;5.30;73.68;99175.81;5070043;28;20193;-59
2021/12/02 00:56:29;;;;;;;31.93;21.60;;;;;;;5.21;74.00;99167.88;5070659;28;20201;-60
2021/12/02 00:58:57;;;;;;;32.83;24.00;;;;;;;5.19;73.36;99164.44;5069671;28;21296;-60
2021/12/02 01:01:33;;;;;;;34.53;21.83;;;;;;;5.24;72.85;99155.25;5070151;28;20670;-60
2021/12/02 01:04:01;;;;;;;32.47;20.07;;;;;;;5.23;72.93;99148.41;5070071;28;20252;-59
2021/12/02 01:06:28;;;;;;;33.00;21.30;;;;;;;5.27;73.42;99150.25;5070080;28;20202;-60
2021/12/02 01:08:55;;;;;;;34.60;20.17;;;;;;;5.27;72.77;99153.63;5070224;28;20246;-59
2021/12/02 01:11:23;;;;;;;37.37;22.70;;;;;;;5.31;72.49;99152.94;5051174;28;20200;-60
2021/12/02 01:13:50;;;;;;;32.73;20.43;;;;;;;5.31;72.82;99159.69;5050095;28;20260;-59
2021/12/02 01:16:22;;;;;;;25.00;16.80;;;;;;;5.19;73.11;99157.63;5050057;28;20602;-60
2021/12/02 01:18:49;;;;;;;27.03;17.43;;;;;;;5.16;73.17;99149.91;5049899;28;20232;-59
2021/12/02 01:21:18;;;;;;;30.07;18.77;;;;;;;5.18;73.24;99150.81;5049801;28;20185;-61
2021/12/02 01:23:49;;;;;;;28.73;18.47;;;;;;;5.12;73.96;99148.06;5050153;28;20200;-59
2021/12/02 01:26:18;;;;;;;31.00;19.13;;;;;;;5.01;73.87;99146.00;5053577;28;20192;-59
2021/12/02 01:28:46;;;;;;;28.17;18.60;;;;;;;4.95;74.17;99133.06;5053749;28;20196;-59
2021/12/02 01:31:13;;;;;;;32.17;19.53;;;;;;;4.99;74.12;99135.78;5053643;28;20671;-60
2021/12/02 01:33:45;;;;;;;28.80;18.17;;;;;;;5.00;74.05;99140.03;5053247;28;20738;-60
2021/12/02 01:36:13;;;;;;;34.27;19.23;;;;;;;4.99;74.00;99132.38;5053828;28;20266;-59
2021/12/02 01:38:40;;;;;;;29.97;18.70;;;;;;;4.99;74.32;99133.22;5053510;28;20689;-60
2021/12/02 01:41:07;;;;;;;31.00;20.13;;;;;;;4.93;74.41;99140.66;5053467;28;20570;-59
2021/12/02 01:43:53;;;;;;;31.83;19.80;;;;;;;4.91;74.33;99136.34;5053488;28;20670;-59
2021/12/02 01:46:23;;;;;;;31.77;20.30;;;;;;;4.89;74.09;99138.81;5053451;28;20651;-60
2021/12/02 01:49:00;;;;;;;28.53;19.50;;;;;;;4.86;74.23;99133.66;5053626;28;20252;-59
2021/12/02 01:51:29;;;;;;;25.67;18.57;;;;;;;4.82;75.13;99130.94;5053418;28;20192;-60
2021/12/02 01:54:03;;;;;;;37.15;24.23;;;;;;;4.76;75.29;99146.88;5052815;28;20830;-61
2021/12/02 01:56:32;;;;;;;35.23;23.03;;;;;;;4.72;75.17;99152.69;5053287;28;20254;-59
2021/12/02 01:59:09;;;;;;;26.47;17.83;;;;;;;4.64;75.29;99146.47;5053049;28;20199;-60
2021/12/02 02:01:38;;;;;;;22.97;15.50;;;;;;;4.68;75.50;99153.38;5053369;28;20195;-59
2021/12/02 02:04:07;;;;;;;23.37;16.03;;;;;;;4.71;75.52;99156.03;5053190;28;20200;-60
2021/12/02 02:06:39;;;;;;;24.43;15.77;;;;;;;4.60;75.58;99149.72;5052903;28;20200;-60
2021/12/02 02:09:08;;;;;;;22.40;15.03;;;;;;;4.54;75.70;99152.06;5052960;28;20254;-59
2021/12/02 02:11:35;;;;;;;21.67;14.33;;;;;;;4.49;75.63;99153.56;5052842;28;20291;-59
2021/12/02 02:14:05;;;;;;;24.03;14.97;;;;;;;4.44;75.44;99148.34;5052863;28;20219;-59
2021/12/02 02:16:32;;;;;;;20.30;14.07;;;;;;;4.36;75.26;99144.66;5052707;28;20192;-60
2021/12/02 02:18:59;;;;;;;19.47;13.77;;;;;;;4.26;75.82;99146.84;5052966;28;20227;-58
2021/12/02 02:21:28;;;;;;;20.00;13.43;;;;;;;4.32;76.59;99157.19;5052653;28;20188;-59
2021/12/02 02:23:58;;;;;;;20.27;13.73;;;;;;;4.28;76.10;99156.25;5052839;28;20184;-59
2021/12/02 02:26:28;;;;;;;23.47;14.23;;;;;;;4.25;76.60;99150.19;5053177;28;20200;-59
2021/12/02 02:28:56;;;;;;;22.47;14.63;;;;;;;4.24;76.95;99154.41;5052485;28;20208;-59
2021/12/02 02:31:23;;;;;;;19.50;13.33;;;;;;;4.22;76.71;99150.94;5052507;28;20196;-60
2021/12/02 02:33:51;;;;;;;20.90;14.27;;;;;;;4.23;77.39;99152.66;5052246;28;20219;-59
2021/12/02 02:36:20;;;;;;;23.10;14.70;;;;;;;4.25;76.98;99151.06;5051442;28;20193;-59
2021/12/02 02:38:56;;;;;;;17.80;12.67;;;;;;;4.17;77.32;99152.47;5052220;28;20199;-60
2021/12/02 02:41:24;;;;;;;17.43;12.00;;;;;;;4.17;77.21;99145.66;5052446;28;20223;-60
2021/12/02 02:43:55;;;;;;;21.80;13.43;;;;;;;4.18;77.29;99138.91;5052215;28;20192;-59
2021/12/02 02:46:24;;;;;;;18.27;13.23;;;;;;;4.14;77.33;99143.06;5052415;28;20196;-59
2021/12/02 02:48:51;;;;;;;18.73;12.50;;;;;;;4.12;77.50;99137.03;5052080;28;20196;-59
2021/12/02 02:51:18;;;;;;;19.77;13.30;;;;;;;4.20;77.71;99147.50;5052174;28;20610;-59
2021/12/02 02:53:45;;;;;;;17.63;12.57;;;;;;;4.22;78.08;99152.63;5052101;28;20703;-60
2021/12/02 02:56:17;;;;;;;17.50;13.43;;;;;;;4.12;77.95;99148.91;5052089;28;20193;-60
2021/12/02 02:58:54;;;;;;;20.47;14.67;;;;;;;4.20;77.88;99159.34;5051965;28;20560;-62
2021/12/02 03:01:34;;;;;;;20.50;13.77;;;;;;;4.21;78.04;99151.75;5052117;28;20283;-60
2021/12/02 03:04:11;;;;;;;24.17;13.50;;;;;;;4.12;77.43;99162.44;5051890;28;20724;-62
2021/12/02 03:06:47;;;;;;;16.33;13.10;;;;;;;4.19;77.83;99176.25;5051834;28;20659;-60
2021/12/02 03:09:20;;;;;;;21.97;13.37;;;;;;;4.26;78.06;99173.09;5051835;28;20191;-63
2021/12/02 03:11:52;;;;;;;19.80;13.17;;;;;;;4.17;78.34;99178.72;5051626;28;20288;-60
2021/12/02 03:14:27;;;;;;;20.93;14.20;;;;;;;4.16;78.26;99177.00;5051773;28;20637;-60
2021/12/02 03:16:53;;;;;;;23.57;14.83;;;;;;;4.12;77.75;99181.94;5051886;28;20200;-60
2021/12/02 03:19:24;;;;;;;28.67;17.90;;;;;;;4.16;77.74;99184.63;5051589;28;20224;-60
2021/12/02 03:21:51;;;;;;;24.13;17.60;;;;;;;4.23;78.03;99183.16;5051449;28;20203;-60
2021/12/02 03:24:18;;;;;;;30.90;17.77;;;;;;;4.18;77.69;99185.56;5051362;28;20196;-55
2021/12/02 03:26:45;;;;;;;31.00;18.17;;;;;;;4.23;77.80;99188.25;5051691;28;20230;-55
2021/12/02 03:29:13;;;;;;;29.65;20.40;;;;;;;4.30;78.03;99180.06;5050302;28;20550;-56
2021/12/02 03:31:41;;;;;;;28.70;19.83;;;;;;;4.35;nan;99177.66;5051326;28;20193;-56
2021/12/02 03:34:08;;;;;;;26.20;18.50;;;;;;;4.35;76.73;99168.34;5051285;28;20220;-55
2021/12/02 03:36:35;;;;;;;30.97;19.67;;;;;;;4.27;77.09;99169.75;5051264;28;20208;-56
2021/12/02 03:39:05;;;;;;;28.27;18.60;;;;;;;4.27;77.27;99169.75;5051483;28;20574;-55
2021/12/02 03:41:33;;;;;;;33.10;20.20;;;;;;;4.21;77.61;99171.22;5051307;28;20608;-56
2021/12/02 03:44:00;;;;;;;30.40;19.97;;;;;;;4.23;77.53;99173.00;5051319;28;20196;-56
2021/12/02 03:46:28;;;;;;;30.53;19.40;;;;;;;4.26;77.15;99177.34;5051079;28;20196;-55
2021/12/02 03:48:56;;;;;;;31.73;20.50;;;;;;;4.23;78.13;99173.00;5050986;28;20672;-55
2021/12/02 03:51:24;;;;;;;32.03;20.37;;;;;;;4.21;77.88;99177.16;5051352;28;20664;-56
2021/12/02 03:53:51;;;;;;;32.23;20.43;;;;;;;4.17;78.06;99170.25;5051154;28;20216;-56
2021/12/02 03:56:18;;;;;;;34.87;20.40;;;;;;;4.17;77.21;99166.00;5050979;28;20670;-55
2021/12/02 03:58:46;;;;;;;31.77;19.27;;;;;;;4.21;77.86;99154.28;5051005;28;20250;-55
2021/12/02 04:01:14;;;;;;;26.83;17.03;;;;;;;4.26;77.70;99155.31;5050924;28;20192;-55
2021/12/02 04:03:43;;;;;;;24.70;16.93;;;;;;;4.30;77.79;99162.25;5050784;28;20191;-56
2021/12/02 04:06:11;;;;;;;27.10;16.93;;;;;;;4.30;77.61;99161.38;5051203;28;20250;-55
2021/12/02 04:08:43;;;;;;;23.47;14.53;;;;;;;4.30;77.33;99174.97;5050794;28;20203;-55
2021/12/02 04:11:22;;;;;;;20.50;14.50;;;;;;;4.37;77.17;99173.50;5050562;28;20200;-56
2021/12/02 04:13:58;;;;;;;23.43;15.03;;;;;;;4.33;76.75;99170.00;5050489;28;20712;-55
2021/12/02 04:16:26;;;;;;;24.37;16.57;;;;;;;4.34;77.32;99166.63;5050819;28;20198;-56
2021/12/02 04:18:54;;;;;;;25.10;16.17;;;;;;;4.32;76.97;99168.25;5050423;28;20224;-55
2021/12/02 04:21:21;;;;;;;23.83;15.93;;;;;;;4.32;76.68;99164.84;5050574;28;20726;-56
2021/12/02 04:23:48;;;;;;;26.17;15.77;;;;;;;4.16;76.31;99132.94;5050509;28;20245;-55
2021/12/02 04:26:15;;;;;;;26.93;16.10;;;;;;;4.25;76.38;99152.72;5050477;28;20540;-55
2021/12/02 04:28:42;;;;;;;25.57;15.20;;;;;;;4.23;76.82;99155.19;5050494;28;20663;-56
2021/12/02 04:31:09;;;;;;;25.43;16.10;;;;;;;4.22;76.74;99147.53;5050472;28;20618;-56
2021/12/02 04:33:36;;;;;;;27.80;16.93;;;;;;;4.22;77.71;99160.25;5050350;28;20295;-56
2021/12/02 04:36:05;;;;;;;25.07;16.27;;;;;;;4.18;77.18;99160.13;5050517;28;20203;-55
2021/12/02 04:38:31;;;;;;;26.33;17.00;;;;;;;4.15;78.17;99164.22;5050445;28;20215;-55
2021/12/02 04:40:58;;;;;;;24.57;16.20;;;;;;;4.17;78.14;99157.53;5050085;28;20242;-56
2021/12/02 04:43:26;;;;;;;26.23;17.10;;;;;;;4.10;77.93;99159.00;5050319;28;20192;-56
2021/12/02 04:45:53;;;;;;;25.70;17.43;;;;;;;3.96;77.97;99167.78;5050099;28;20725;-55
2021/12/02 04:48:20;;;;;;;24.90;16.70;;;;;;;3.85;78.44;99152.94;5050070;28;20211;-56
2021/12/02 04:50:48;;;;;;;25.00;16.67;;;;;;;3.83;78.71;99177.44;5050081;28;20192;-56
2021/12/02 04:53:17;;;;;;;36.60;18.13;;;;;;;3.64;78.86;99132.72;5050000;28;20224;-56
2021/12/02 04:55:43;;;;;;;31.73;20.60;;;;;;;3.78;79.06;99163.72;5050063;28;20219;-56
2021/12/02 04:58:10;;;;;;;31.10;20.53;;;;;;;3.72;78.96;99171.97;5049946;28;20618;-56
2021/12/02 05:00:37;;;;;;;34.27;20.97;;;;;;;3.66;79.60;99173.41;5054032;28;20192;-56
2021/12/02 05:03:04;;;;;;;27.30;18.80;;;;;;;3.46;79.68;99160.81;5054213;28;20199;-56
2021/12/02 05:05:32;;;;;;;36.43;19.73;;;;;;;3.26;80.13;99158.31;5054165;28;20199;-56
2021/12/02 05:08:00;;;;;;;35.93;21.80;;;;;;;3.20;80.45;99163.13;5053951;28;20286;-59
2021/12/02 05:10:28;;;;;;;28.57;20.57;;;;;;;3.20;80.29;99164.00;5054096;28;20191;-59
2021/12/02 05:12:55;;;;;;;41.43;24.40;;;;;;;3.05;80.55;99180.31;5054107;28;20196;-59
2021/12/02 05:15:22;;;;;;;40.63;26.57;;;;;;;3.01;80.75;99175.91;5053803;28;20199;-59
2021/12/02 05:17:49;;;;;;;48.03;30.53;;;;;;;2.72;81.53;99178.09;5053869;28;20203;-59
2021/12/02 05:20:16;;;;;;;60.53;33.87;;;;;;;2.59;81.90;99178.41;5053665;28;20606;-60
2021/12/02 05:22:44;;;;;;;48.30;32.53;;;;;;;2.43;83.17;99172.59;5053793;28;20200;-61
2021/12/02 05:25:11;;;;;;;47.07;28.57;;;;;;;2.53;83.34;99174.75;5053932;28;20195;-61
2021/12/02 05:27:39;;;;;;;48.23;28.77;;;;;;;2.51;83.24;99177.19;5053873;28;20269;-60
2021/12/02 05:30:08;;;;;;;41.03;25.97;;;;;;;2.06;83.69;99130.47;5053425;28;20188;-61
2021/12/02 05:32:34;;;;;;;43.77;25.80;;;;;;;2.26;84.47;99179.47;5053603;28;20195;-57
2021/12/02 05:35:02;;;;;;;47.17;25.30;;;;;;;2.29;84.68;99175.41;5053384;28;21164;-56
2021/12/02 05:37:29;;;;;;;39.77;24.67;;;;;;;2.41;83.62;99177.63;5053387;28;20226;-57
2021/12/02 05:39:56;;;;;;;42.77;23.30;;;;;;;2.51;83.49;99181.41;5055508;28;20203;-56
2021/12/02 05:42:22;;;;;;;41.80;28.25;;;;;;;2.57;83.14;99184.19;5061671;28;20439;-56
2021/12/02 05:44:50;;;;;;;39.73;26.50;;;;;;;2.72;82.45;99185.69;5053291;28;20188;-56
2021/12/02 05:47:17;;;;;;;42.20;26.70;;;;;;;2.82;82.27;99176.81;5053170;28;20192;-57
2021/12/02 05:49:44;;;;;;;40.30;23.03;;;;;;;2.84;82.32;99173.53;5052712;28;20192;-57
2021/12/02 05:52:11;;;;;;;36.53;23.03;;;;;;;2.87;82.11;99168.59;5053303;28;20279;-56
2021/12/02 05:54:38;;;;;;;31.67;22.30;;;;;;;2.94;81.39;99179.84;5053088;28;20220;-56
2021/12/02 05:57:05;;;;;;;30.40;21.77;;;;;;;2.96;81.48;99191.81;5052837;28;20192;-56
2021/12/02 05:59:32;;;;;;;32.47;21.03;;;;;;;2.86;81.43;99159.25;5052980;28;20192;-56
2021/12/02 06:02:00;;;;;;;33.50;25.60;;;;;;;3.15;81.42;99187.47;5051994;28;20469;-56
2021/12/02 06:04:27;;;;;;;32.47;22.57;;;;;;;3.31;80.25;99185.59;5053014;28;20184;-56
2021/12/02 06:06:54;;;;;;;30.03;19.73;;;;;;;3.38;79.95;99189.22;5052991;28;20647;-56
2021/12/02 06:09:21;;;;;;;35.97;20.13;;;;;;;3.44;79.86;99189.47;5052837;28;20593;-56
2021/12/02 06:11:48;;;;;;;32.27;20.43;;;;;;;3.51;79.86;99196.56;5051440;28;20196;-57
2021/12/02 06:14:15;;;;;;;31.80;20.97;;;;;;;3.49;79.12;99187.97;5052754;28;20395;-57
2021/12/02 06:16:43;;;;;;;34.20;22.20;;;;;;;3.48;79.82;99192.22;5052774;28;20192;-56
2021/12/02 06:19:11;;;;;;;33.63;21.27;;;;;;;3.54;79.36;99189.91;5052772;28;20232;-57
2021/12/02 06:21:39;;;;;;;32.70;21.57;;;;;;;3.36;79.42;99153.66;5052556;28;20645;-57
2021/12/02 06:24:08;;;;;;;35.93;24.13;;;;;;;3.51;79.02;99189.81;5052394;28;20189;-57
2021/12/02 06:26:35;;;;;;;41.97;26.67;;;;;;;3.37;79.53;99183.31;5052242;28;20192;-56
2021/12/02 06:29:02;;;;;;;35.80;25.17;;;;;;;3.50;80.00;99194.81;5052126;28;20195;-57
2021/12/02 06:31:29;;;;;;;37.37;23.93;;;;;;;3.59;79.54;99192.63;5055193;28;20191;-57
2021/12/02 06:33:56;;;;;;;39.40;24.73;;;;;;;3.70;79.56;99195.56;5072382;28;20200;-56
2021/12/02 06:36:24;;;;;;;37.10;24.27;;;;;;;3.82;79.88;99194.34;5072301;28;20192;-56
2021/12/02 06:38:51;;;;;;;38.03;23.97;;;;;;;3.99;78.57;99180.59;5072147;28;20559;-56
2021/12/02 06:41:18;;;;;;;40.97;25.13;;;;;;;4.13;77.99;99184.53;5071588;28;20274;-56
2021/12/02 06:43:45;;;;;;;45.67;25.87;;;;;;;4.20;77.31;99185.63;5071852;28;20210;-56
2021/12/02 06:46:13;;;;;;;38.83;26.13;;;;;;;4.34;77.21;99175.94;5071751;28;20199;-56
2021/12/02 06:48:39;;;;;;;39.70;24.63;;;;;;;4.48;77.82;99180.69;5071991;28;20191;-56
2021/12/02 06:51:08;;;;;;;37.80;23.97;;;;;;;4.64;76.36;99182.09;5071702;28;20697;-56
2021/12/02 06:53:37;;;;;;;32.17;24.35;;;;;;;4.78;76.63;99181.72;5071098;28;20511;-56
2021/12/02 06:56:04;;;;;;;34.77;22.30;;;;;;;4.90;76.44;99178.75;5071387;28;20219;-56
2021/12/02 06:58:31;;;;;;;39.33;22.17;;;;;;;4.89;76.00;99168.53;5071535;28;20630;-55
2021/12/02 07:00:58;;;;;;;30.57;22.93;;;;;;;4.98;75.97;99176.44;5071208;28;20803;-56
2021/12/02 07:03:25;;;;;;;43.60;26.00;;;;;;;4.93;75.70;99167.78;5071346;28;20217;-55
2021/12/02 07:05:52;;;;;;;39.30;25.70;;;;;;;4.99;76.17;99179.06;5071364;28;20531;-61
2021/12/02 07:08:20;;;;;;;43.30;25.47;;;;;;;5.04;76.27;99181.75;5071481;28;20252;-60
2021/12/02 07:10:49;;;;;;;42.87;27.63;;;;;;;5.11;75.94;99181.97;5071292;28;20670;-61
2021/12/02 07:13:17;;;;;;;47.75;31.42;;;;;;;5.23;76.02;99177.28;5069131;28;20441;-61
2021/12/02 07:15:46;;;;;;;42.77;29.27;;;;;;;5.33;75.01;99171.66;5065323;28;20202;-61
2021/12/02 07:18:14;;;;;;;53.33;31.60;;;;;;;5.44;74.06;99177.09;5070524;28;20298;-60
2021/12/02 07:20:42;;;;;;;50.33;31.07;;;;;;;5.38;73.31;99172.66;5070829;28;20710;-60
2021/12/02 07:23:10;;;;;;;51.93;31.93;;;;;;;5.44;73.55;99177.09;5070541;28;20613;-60
2021/12/02 07:25:39;;;;;;;46.70;32.03;;;;;;;5.52;73.22;99180.75;5070916;28;20586;-61
2021/12/02 07:28:07;;;;;;;66.77;34.73;;;;;;;5.64;73.08;99187.91;5070995;28;20196;-60
2021/12/02 07:30:34;;;;;;;59.33;36.63;;;;;;;5.69;72.65;99184.69;5071514;28;20194;-61
2021/12/02 07:33:01;;;;;;;49.87;32.03;;;;;;;5.74;71.62;99183.13;5071570;28;20203;-61
2021/12/02 07:35:28;;;;;;;50.83;32.87;;;;;;;5.77;71.95;99180.66;5071179;28;21084;-60
2021/12/02 07:37:57;;;;;;;54.57;33.97;;;;;;;5.87;71.93;99197.16;5071216;28;20604;-60
2021/12/02 07:40:25;;;;;;;41.57;30.27;;;;;;;5.95;70.55;99193.16;5070474;28;20191;-60
2021/12/02 07:42:53;;;;;;;53.37;32.70;;;;;;;5.98;71.00;99197.47;5070000;28;20199;-61
2021/12/02 07:45:26;;;;;;;48.10;32.53;;;;;;;6.02;70.72;99189.94;5070693;28;20197;-61
2021/12/02 07:47:53;;;;;;;51.40;34.03;;;;;;;6.05;70.66;99187.47;5070706;28;20199;-60
2021/12/02 07:50:20;;;;;;;54.47;34.33;;;;;;;5.99;70.83;99174.56;5070753;28;20203;-61
2021/12/02 07:52:50;;;;;;;48.47;35.50;;;;;;;6.00;71.21;99181.38;5070633;28;20199;-60
2021/12/02 07:55:18;;;;;;;55.83;36.57;;;;;;;5.95;71.51;99177.84;5070564;28;20238;-61
2021/12/02 07:57:45;;;;;;;53.53;36.83;;;;;;;5.87;71.04;99172.53;5070519;28;20191;-61
2021/12/02 08:00:15;;;;;;;53.90;36.33;;;;;;;5.84;71.67;99169.84;5070575;28;20187;-61
2021/12/02 08:02:46;;;;;;;57.60;35.67;;;;;;;5.94;72.08;99171.88;5070367;28;20195;-62
2021/12/02 08:05:13;;;;;;;52.80;35.90;;;;;;;5.96;72.17;99164.25;5070628;28;20195;-60
2021/12/02 08:07:41;;;;;;;53.93;36.33;;;;;;;6.15;71.31;99165.66;5070263;28;20195;-60
2021/12/02 08:10:10;;;;;;;52.00;33.87;;;;;;;6.29;71.04;99165.22;5070418;28;20202;-61
2021/12/02 08:12:41;;;;;;;56.50;35.43;;;;;;;6.43;70.90;99157.94;5070112;28;20201;-61
2021/12/02 08:15:09;;;;;;;67.73;36.10;;;;;;;6.51;69.72;99147.13;5058337;28;20212;-62
2021/12/02 08:17:36;;;;;;;57.43;38.57;;;;;;;6.63;69.30;99156.78;5049999;28;20191;-60
2021/12/02 08:20:05;;;;;;;57.13;41.60;;;;;;;6.72;70.03;99162.13;5049795;28;20579;-62
2021/12/02 08:22:32;;;;;;;66.50;41.93;;;;;;;6.82;69.60;99158.13;5049697;28;20194;-60
2021/12/02 08:24:59;;;;;;;62.40;40.50;;;;;;;6.99;69.31;99160.28;5049985;28;20197;-56
2021/12/02 08:27:26;;;;;;;67.00;41.63;;;;;;;7.13;68.96;99161.50;5050039;28;20587;-56
2021/12/02 08:29:53;;;;;;;63.53;41.13;;;;;;;7.29;68.37;99170.38;5050006;28;20204;-56
2021/12/02 08:32:20;;;;;;;64.83;39.47;;;;;;;7.41;68.06;99160.47;5050095;28;20207;-57
2021/12/02 08:34:47;;;;;;;61.13;37.70;;;;;;;7.48;66.86;99154.66;5049123;28;20680;-55
2021/12/02 08:37:15;;;;;;;53.87;37.37;;;;;;;7.52;66.86;99147.91;5050049;28;20192;-56
2021/12/02 08:39:43;;;;;;;53.80;35.57;;;;;;;7.48;66.70;99146.09;5049543;28;20781;-56
2021/12/02 08:42:10;;;;;;;52.27;35.03;;;;;;;7.43;66.10;99140.91;5049567;28;20195;-55
2021/12/02 08:44:40;;;;;;;50.77;35.17;;;;;;;7.51;66.70;99152.16;5049595;28;20185;-56
2021/12/02 08:47:09;;;;;;;61.83;38.30;;;;;;;7.62;66.94;99149.84;5049887;28;20204;-62
2021/12/02 08:49:36;;;;;;;52.03;36.87;;;;;;;7.76;66.64;99140.78;5049357;28;20287;-61
2021/12/02 08:52:03;;;;;;;51.87;34.97;;;;;;;7.89;66.06;99147.00;5049591;28;20195;-61
2021/12/02 08:54:31;;;;;;;58.63;38.60;;;;;;;7.79;66.24;99139.97;5049572;28;20221;-60
2021/12/02 08:56:58;;;;;;;61.00;37.77;;;;;;;7.77;66.31;99142.53;5049691;28;20188;-61
2021/12/02 08:59:25;;;;;;;48.17;33.13;;;;;;;7.61;66.38;99127.66;5049609;28;20548;-61
2021/12/02 09:01:52;;;;;;;47.20;33.17;;;;;;;7.71;66.58;99125.34;5049467;28;20676;-61
2021/12/02 09:04:19;;;;;;;46.63;31.33;;;;;;;7.82;65.70;99111.91;5049770;28;20556;-62
2021/12/02 09:06:46;;;;;;;48.63;31.40;;;;;;;7.88;65.47;99115.47;5049349;28;20192;-60
2021/12/02 09:09:12;;;;;;;39.90;28.93;;;;;;;7.95;65.96;99108.78;5049576;28;20193;-61
2021/12/02 09:11:41;;;;;;;37.07;27.30;;;;;;;8.08;65.23;99106.50;5049435;28;20196;-61
2021/12/02 09:14:07;;;;;;;46.60;32.43;;;;;;;8.11;65.50;99098.00;5049298;28;20196;-61
2021/12/02 09:16:36;;;;;;;56.33;39.40;;;;;;;8.24;65.44;99105.94;5049496;28;20189;-62
2021/12/02 09:19:03;;;;;;;67.53;47.63;;;;;;;8.24;65.72;99097.44;5049578;28;20228;-61
2021/12/02 09:21:30;;;;;;;73.07;48.93;;;;;;;8.27;65.72;99088.13;5049560;28;20218;-60
2021/12/02 09:23:57;;;;;;;71.83;50.93;;;;;;;8.38;65.95;99096.00;5049284;28;20776;-61
2021/12/02 09:26:24;;;;;;;60.27;43.63;;;;;;;8.56;65.49;99098.03;5049315;28;20194;-61
2021/12/02 09:28:56;;;;;;;64.07;39.43;;;;;;;8.65;65.11;99087.97;5049688;28;20201;-61
2021/12/02 09:31:23;;;;;;;54.70;34.97;;;;;;;8.64;64.91;99084.53;5049581;28;20652;-62
2021/12/02 09:33:50;;;;;;;52.10;34.30;;;;;;;8.68;64.83;99077.78;5049191;28;20191;-60
2021/12/02 09:36:18;;;;;;;52.17;34.30;;;;;;;8.69;64.57;99077.78;5049145;28;20240;-61
2021/12/02 09:38:45;;;;;;;52.53;35.10;;;;;;;8.76;64.39;99069.34;5049388;28;20195;-61
2021/12/02 09:41:12;;;;;;;50.97;34.83;;;;;;;8.83;64.38;99066.06;5049075;28;20768;-60
2021/12/02 09:43:40;;;;;;;48.07;34.53;;;;;;;8.89;63.80;99062.75;5049112;28;20199;-60
2021/12/02 09:46:09;;;;;;;46.40;35.20;;;;;;;8.95;63.45;99062.84;5051644;28;20187;-60
2021/12/02 09:48:36;;;;;;;49.03;33.63;;;;;;;8.94;63.20;99056.00;5054225;28;20202;-61
2021/12/02 09:51:08;;;;;;;58.30;38.50;;;;;;;8.80;63.12;99030.16;5072744;28;20194;-61
2021/12/02 09:53:39;;;;;;;51.53;39.63;;;;;;;8.93;63.49;99045.75;5064040;28;20199;-61
2021/12/02 09:56:15;;;;;;;63.10;43.40;;;;;;;9.00;63.32;99045.84;5052796;28;20622;-61
2021/12/02 09:58:42;;;;;;;59.80;44.10;;;;;;;9.11;63.31;99046.88;5052333;28;20663;-62
2021/12/02 10:01:13;;;;;;;71.17;45.27;;;;;;;9.28;62.33;99047.97;5063904;28;20195;-61
2021/12/02 10:03:41;;;;;;;64.73;43.47;;;;;;;9.35;62.01;99033.53;5069726;28;20186;-62
2021/12/02 10:06:10;;;;;;;63.93;43.90;;;;;;;9.44;61.96;99034.53;5071839;28;20184;-61
2021/12/02 10:08:46;;;;;;;67.30;43.60;;;;;;;9.48;61.44;99012.34;5072144;28;20184;-62
2021/12/02 10:11:15;;;;;;;63.80;43.47;;;;;;;9.64;60.73;99014.25;5071982;28;21019;-61
2021/12/02 10:13:49;;;;;;;53.43;39.93;;;;;;;9.72;60.46;99004.97;5069551;28;20245;-61
2021/12/02 10:16:23;;;;;;;66.13;40.67;;;;;;;9.87;59.82;99000.00;5071706;28;20210;-62
2021/12/02 10:19:01;;;;;;;55.23;37.27;;;;;;;9.84;59.46;98999.09;5069444;28;20643;-60
2021/12/02 10:21:32;;;;;;;56.70;36.73;;;;;;;9.86;59.15;98993.13;5070477;28;20281;-61
2021/12/02 10:24:04;;;;;;;49.70;35.93;;;;;;;9.94;58.64;98988.09;5057157;28;20206;-61
2021/12/02 10:26:36;;;;;;;46.03;32.80;;;;;;;9.90;58.57;98966.66;5051910;28;20196;-62
2021/12/02 10:29:09;;;;;;;54.77;35.90;;;;;;;10.16;58.15;98984.06;5051964;28;20219;-61
2021/12/02 10:31:38;;;;;;;50.53;33.93;;;;;;;10.31;57.93;98973.91;5052073;28;20199;-62
2021/12/02 10:34:07;;;;;;;49.00;34.33;;;;;;;10.38;57.50;98973.16;5052095;28;20196;-62
2021/12/02 10:36:36;;;;;;;44.67;32.60;;;;;;;10.44;57.37;98968.03;5051908;28;20225;-60
2021/12/02 10:39:11;;;;;;;43.03;30.83;;;;;;;10.50;56.04;98965.53;5059586;28;20213;-61
2021/12/02 10:41:42;;;;;;;39.70;30.00;;;;;;;10.50;56.91;98960.38;5071766;28;20197;-62
2021/12/02 10:44:23;;;;;;;37.30;27.53;;;;;;;10.38;56.14;98938.03;5071875;28;20192;-62
2021/12/02 10:47:04;;;;;;;39.90;24.60;;;;;;;10.47;55.81;98962.94;5071739;28;20194;-62
2021/12/02 10:49:32;;;;;;;29.93;21.23;;;;;;;10.57;56.36;98975.03;5071636;28;20204;-61
2021/12/02 10:52:03;;;;;;;24.30;18.47;;;;;;;10.60;56.01;98967.34;5071960;28;20183;-63
2021/12/02 10:54:32;;;;;;;29.83;18.40;;;;;;;10.66;56.11;98968.22;5071748;28;20587;-61
2021/12/02 10:57:06;;;;;;;22.77;18.03;;;;;;;10.59;56.45;98945.94;5070869;28;20207;-61
2021/12/02 10:59:41;;;;;;;22.83;15.03;;;;;;;10.61;55.99;98951.06;5071135;28;20263;-61
2021/12/02 11:02:17;;;;;;;21.03;15.63;;;;;;;10.59;56.67;98940.78;5071093;28;20288;-62
2021/12/02 11:04:46;;;;;;;27.03;16.40;;;;;;;10.68;56.68;98936.56;5067418;28;20195;-61
2021/12/02 11:07:21;;;;;;;19.63;14.77;;;;;;;10.71;56.56;98936.59;5064824;28;20202;-61
2021/12/02 11:09:50;;;;;;;21.77;15.80;;;;;;;10.74;55.61;98934.03;5051589;28;20201;-60
2021/12/02 11:12:21;;;;;;;21.53;15.83;;;;;;;10.71;56.42;98924.59;5051266;28;20248;-62
2021/12/02 11:14:57;;;;;;;19.90;15.37;;;;;;;10.74;56.29;98919.44;5051255;28;20224;-61
2021/12/02 11:17:29;;;;;;;25.37;16.53;;;;;;;10.84;56.99;98933.22;5051671;28;20316;-60
2021/12/02 11:19:57;;;;;;;22.53;14.13;;;;;;;10.79;56.67;98925.50;5050922;28;20700;-61
2021/12/02 11:22:26;;;;;;;20.60;16.27;;;;;;;10.90;56.68;98918.72;5051309;28;20195;-61
2021/12/02 11:24:53;;;;;;;21.47;15.40;;;;;;;10.97;56.07;98924.72;5051229;28;20199;-61
2021/12/02 11:27:22;;;;;;;27.20;17.93;;;;;;;11.08;54.18;98921.38;5051015;28;20218;-62
2021/12/02 11:30:05;;;;;;;25.73;19.10;;;;;;;11.03;53.79;98917.06;5051360;28;20218;-61
2021/12/02 11:32:37;;;;;;;29.27;20.37;;;;;;;11.07;54.43;98911.94;5050889;28;20673;-63
2021/12/02 11:35:12;;;;;;;28.93;20.83;;;;;;;11.15;54.15;98906.84;5050946;28;20643;-62